sensor_id;sensor_type;location;lat;lon;timestamp;P1;durP1;ratioP1;P2;durP2;ratioP2
66546;SDS011;53400;50.364;14.874;2022-10-16T00:01:12;32.75;;;18.45;;
66546;SDS011;53400;50.364;14.874;2022-10-16T00:03:40;31.90;;;18.80;;
66546;SDS011;53400;50.364;14.874;2022-10-16T00:06:06;31.85;;;17.95;;
66546;SDS011;53400;50.364;14.874;2022-10-16T00:08:34;29.65;;;16.27;;
66546;SDS011;53400;50.364;14.874;2022-10-16T00:11:01;28.15;;;16.25;;
66546;SDS011;53400;50.364;14.874;2022-10-16T00:13:30;27.67;;;17.48;;
66546;SDS011;53400;50.364;14.874;2022-10-16T00:15:56;28.63;;;16.42;;
66546;SDS011;53400;50.364;14.874;2022-10-16T00:18:23;28.42;;;16.33;;
66546;SDS011;53400;50.364;14.874;2022-10-16T00:20:50;27.85;;;16.52;;
66546;SDS011;53400;50.364;14.874;2022-10-16T00:23:16;27.35;;;17.30;;
66546;SDS011;53400;50.364;14.874;2022-10-16T00:25:42;26.85;;;16.20;;
66546;SDS011;53400;50.364;14.874;2022-10-16T00:28:07;27.13;;;17.63;;
66546;SDS011;53400;50.364;14.874;2022-10-16T00:30:36;30.73;;;17.17;;
66546;SDS011;53400;50.364;14.874;2022-10-16T00:33:03;28.65;;;16.85;;
66546;SDS011;53400;50.364;14.874;2022-10-16T00:35:30;30.70;;;17.00;;
66546;SDS011;53400;50.364;14.874;2022-10-16T00:37:56;26.40;;;16.17;;
66546;SDS011;53400;50.364;14.874;2022-10-16T00:40:22;28.85;;;16.60;;
66546;SDS011;53400;50.364;14.874;2022-10-16T00:42:48;28.38;;;16.80;;
66546;SDS011;53400;50.364;14.874;2022-10-16T00:45:13;29.63;;;17.25;;
66546;SDS011;53400;50.364;14.874;2022-10-16T00:47:42;30.85;;;17.38;;
66546;SDS011;53400;50.364;14.874;2022-10-16T00:50:12;28.15;;;15.68;;
66546;SDS011;53400;50.364;14.874;2022-10-16T00:52:43;32.42;;;18.13;;
66546;SDS011;53400;50.364;14.874;2022-10-16T00:55:12;26.85;;;16.50;;
66546;SDS011;53400;50.364;14.874;2022-10-16T00:57:38;28.90;;;17.00;;
66546;SDS011;53400;50.364;14.874;2022-10-16T01:00:05;27.33;;;16.73;;
66546;SDS011;53400;50.364;14.874;2022-10-16T01:02:33;28.95;;;17.50;;
66546;SDS011;53400;50.364;14.874;2022-10-16T01:05:00;28.38;;;16.63;;
66546;SDS011;53400;50.364;14.874;2022-10-16T01:07:30;27.20;;;15.93;;
66546;SDS011;53400;50.364;14.874;2022-10-16T01:10:09;24.77;;;15.00;;
66546;SDS011;53400;50.364;14.874;2022-10-16T01:12:45;23.80;;;14.80;;
66546;SDS011;53400;50.364;14.874;2022-10-16T01:15:17;23.83;;;15.63;;
66546;SDS011;53400;50.364;14.874;2022-10-16T01:17:51;22.40;;;14.82;;
66546;SDS011;53400;50.364;14.874;2022-10-16T01:20:25;22.23;;;13.32;;
66546;SDS011;53400;50.364;14.874;2022-10-16T01:23:09;22.10;;;13.70;;
66546;SDS011;53400;50.364;14.874;2022-10-16T01:25:49;27.42;;;13.43;;
66546;SDS011;53400;50.364;14.874;2022-10-16T01:28:29;24.15;;;14.20;;
66546;SDS011;53400;50.364;14.874;2022-10-16T01:31:01;22.25;;;13.30;;
66546;SDS011;53400;50.364;14.874;2022-10-16T01:33:30;22.75;;;14.05;;
66546;SDS011;53400;50.364;14.874;2022-10-16T01:36:01;22.08;;;13.60;;
66546;SDS011;53400;50.364;14.874;2022-10-16T01:41:00;20.88;;;12.15;;
66546;SDS011;53400;50.364;14.874;2022-10-16T01:43:34;22.50;;;13.48;;
66546;SDS011;53400;50.364;14.874;2022-10-16T01:46:04;23.98;;;13.23;;
66546;SDS011;53400;50.364;14.874;2022-10-16T01:48:31;23.58;;;12.88;;
66546;SDS011;53400;50.364;14.874;2022-10-16T01:51:00;25.13;;;13.52;;
66546;SDS011;53400;50.364;14.874;2022-10-16T01:53:31;21.23;;;12.43;;
66546;SDS011;53400;50.364;14.874;2022-10-16T01:55:58;23.73;;;14.18;;
66546;SDS011;53400;50.364;14.874;2022-10-16T01:58:25;23.08;;;13.45;;
66546;SDS011;53400;50.364;14.874;2022-10-16T02:00:57;27.73;;;14.35;;
66546;SDS011;53400;50.364;14.874;2022-10-16T02:03:23;23.95;;;14.40;;
66546;SDS011;53400;50.364;14.874;2022-10-16T02:05:49;26.08;;;15.02;;
66546;SDS011;53400;50.364;14.874;2022-10-16T02:08:19;27.88;;;15.85;;
66546;SDS011;53400;50.364;14.874;2022-10-16T02:10:46;25.10;;;15.52;;
66546;SDS011;53400;50.364;14.874;2022-10-16T02:13:13;24.30;;;14.80;;
66546;SDS011;53400;50.364;14.874;2022-10-16T02:15:42;24.75;;;15.50;;
66546;SDS011;53400;50.364;14.874;2022-10-16T02:18:09;24.73;;;14.70;;
66546;SDS011;53400;50.364;14.874;2022-10-16T02:20:37;25.90;;;14.70;;
66546;SDS011;53400;50.364;14.874;2022-10-16T02:23:11;27.13;;;15.02;;
66546;SDS011;53400;50.364;14.874;2022-10-16T02:25:42;25.77;;;14.80;;
66546;SDS011;53400;50.364;14.874;2022-10-16T02:28:11;25.25;;;14.95;;
66546;SDS011;53400;50.364;14.874;2022-10-16T02:30:43;26.67;;;15.40;;
66546;SDS011;53400;50.364;14.874;2022-10-16T02:33:15;25.95;;;15.07;;
66546;SDS011;53400;50.364;14.874;2022-10-16T02:35:42;26.98;;;15.07;;
66546;SDS011;53400;50.364;14.874;2022-10-16T02:38:11;23.70;;;13.73;;
66546;SDS011;53400;50.364;14.874;2022-10-16T02:40:39;27.10;;;14.35;;
66546;SDS011;53400;50.364;14.874;2022-10-16T02:43:06;27.38;;;15.40;;
66546;SDS011;53400;50.364;14.874;2022-10-16T02:45:32;27.65;;;15.13;;
66546;SDS011;53400;50.364;14.874;2022-10-16T02:47:58;24.98;;;14.32;;
66546;SDS011;53400;50.364;14.874;2022-10-16T02:50:25;28.52;;;15.23;;
66546;SDS011;53400;50.364;14.874;2022-10-16T02:52:51;22.40;;;14.57;;
66546;SDS011;53400;50.364;14.874;2022-10-16T02:55:17;24.80;;;13.60;;
66546;SDS011;53400;50.364;14.874;2022-10-16T02:57:43;28.65;;;15.85;;
66546;SDS011;53400;50.364;14.874;2022-10-16T03:00:09;25.45;;;14.15;;
66546;SDS011;53400;50.364;14.874;2022-10-16T03:02:38;28.42;;;15.27;;
66546;SDS011;53400;50.364;14.874;2022-10-16T03:05:05;24.70;;;14.68;;
66546;SDS011;53400;50.364;14.874;2022-10-16T03:07:32;30.70;;;16.40;;
66546;SDS011;53400;50.364;14.874;2022-10-16T03:09:58;27.15;;;15.80;;
66546;SDS011;53400;50.364;14.874;2022-10-16T03:12:25;26.20;;;14.73;;
66546;SDS011;53400;50.364;14.874;2022-10-16T03:14:51;29.20;;;16.00;;
66546;SDS011;53400;50.364;14.874;2022-10-16T03:17:18;28.95;;;15.48;;
66546;SDS011;53400;50.364;14.874;2022-10-16T03:19:43;27.70;;;14.65;;
66546;SDS011;53400;50.364;14.874;2022-10-16T03:22:09;27.73;;;15.55;;
66546;SDS011;53400;50.364;14.874;2022-10-16T03:24:37;28.98;;;16.60;;
66546;SDS011;53400;50.364;14.874;2022-10-16T03:27:03;25.38;;;15.40;;
66546;SDS011;53400;50.364;14.874;2022-10-16T03:29:28;25.90;;;14.68;;
66546;SDS011;53400;50.364;14.874;2022-10-16T03:31:55;27.60;;;14.55;;
66546;SDS011;53400;50.364;14.874;2022-10-16T03:34:21;24.20;;;15.32;;
66546;SDS011;53400;50.364;14.874;2022-10-16T03:36:47;27.63;;;15.60;;
66546;SDS011;53400;50.364;14.874;2022-10-16T03:39:13;24.58;;;14.30;;
66546;SDS011;53400;50.364;14.874;2022-10-16T03:41:40;24.83;;;15.45;;
66546;SDS011;53400;50.364;14.874;2022-10-16T03:44:06;25.70;;;14.15;;
66546;SDS011;53400;50.364;14.874;2022-10-16T03:46:32;23.10;;;13.63;;
66546;SDS011;53400;50.364;14.874;2022-10-16T03:48:58;22.92;;;14.13;;
66546;SDS011;53400;50.364;14.874;2022-10-16T03:51:24;23.55;;;14.10;;
66546;SDS011;53400;50.364;14.874;2022-10-16T03:53:49;25.08;;;13.10;;
66546;SDS011;53400;50.364;14.874;2022-10-16T03:56:15;22.27;;;13.68;;
66546;SDS011;53400;50.364;14.874;2022-10-16T03:58:43;26.48;;;15.75;;
66546;SDS011;53400;50.364;14.874;2022-10-16T04:01:09;23.23;;;13.80;;
66546;SDS011;53400;50.364;14.874;2022-10-16T04:03:34;21.83;;;13.40;;
66546;SDS011;53400;50.364;14.874;2022-10-16T04:06:00;22.13;;;13.20;;
66546;SDS011;53400;50.364;14.874;2022-10-16T04:08:26;19.10;;;12.25;;
66546;SDS011;53400;50.364;14.874;2022-10-16T04:10:52;19.88;;;12.48;;
66546;SDS011;53400;50.364;14.874;2022-10-16T04:13:18;22.23;;;13.20;;
66546;SDS011;53400;50.364;14.874;2022-10-16T04:15:45;21.38;;;12.68;;
66546;SDS011;53400;50.364;14.874;2022-10-16T04:18:11;24.10;;;12.57;;
66546;SDS011;53400;50.364;14.874;2022-10-16T04:20:37;21.65;;;12.85;;
66546;SDS011;53400;50.364;14.874;2022-10-16T04:23:03;22.73;;;13.23;;
66546;SDS011;53400;50.364;14.874;2022-10-16T04:25:30;22.05;;;13.13;;
66546;SDS011;53400;50.364;14.874;2022-10-16T04:27:55;20.55;;;12.23;;
66546;SDS011;53400;50.364;14.874;2022-10-16T04:30:22;22.77;;;11.98;;
66546;SDS011;53400;50.364;14.874;2022-10-16T04:32:49;23.80;;;13.18;;
66546;SDS011;53400;50.364;14.874;2022-10-16T04:35:16;22.88;;;13.63;;
66546;SDS011;53400;50.364;14.874;2022-10-16T04:37:42;23.42;;;13.27;;
66546;SDS011;53400;50.364;14.874;2022-10-16T04:40:08;23.20;;;12.60;;
66546;SDS011;53400;50.364;14.874;2022-10-16T04:42:34;21.85;;;12.98;;
66546;SDS011;53400;50.364;14.874;2022-10-16T04:45:00;20.08;;;12.52;;
66546;SDS011;53400;50.364;14.874;2022-10-16T04:47:26;21.95;;;14.18;;
66546;SDS011;53400;50.364;14.874;2022-10-16T04:49:53;22.70;;;13.73;;
66546;SDS011;53400;50.364;14.874;2022-10-16T04:52:19;22.05;;;13.20;;
66546;SDS011;53400;50.364;14.874;2022-10-16T04:54:46;24.35;;;13.73;;
66546;SDS011;53400;50.364;14.874;2022-10-16T04:57:12;22.92;;;13.23;;
66546;SDS011;53400;50.364;14.874;2022-10-16T04:59:38;22.25;;;13.55;;
66546;SDS011;53400;50.364;14.874;2022-10-16T05:02:04;23.88;;;13.45;;
66546;SDS011;53400;50.364;14.874;2022-10-16T05:04:30;21.95;;;13.45;;
66546;SDS011;53400;50.364;14.874;2022-10-16T05:06:57;20.40;;;13.05;;
66546;SDS011;53400;50.364;14.874;2022-10-16T05:09:23;21.27;;;12.75;;
66546;SDS011;53400;50.364;14.874;2022-10-16T05:11:49;22.10;;;13.32;;
66546;SDS011;53400;50.364;14.874;2022-10-16T05:14:15;22.30;;;12.60;;
66546;SDS011;53400;50.364;14.874;2022-10-16T05:16:41;21.67;;;12.68;;
66546;SDS011;53400;50.364;14.874;2022-10-16T05:19:07;23.45;;;12.63;;
66546;SDS011;53400;50.364;14.874;2022-10-16T05:21:33;20.92;;;12.70;;
66546;SDS011;53400;50.364;14.874;2022-10-16T05:24:00;21.60;;;12.32;;
66546;SDS011;53400;50.364;14.874;2022-10-16T05:26:26;21.95;;;13.13;;
66546;SDS011;53400;50.364;14.874;2022-10-16T05:28:52;20.98;;;12.13;;
66546;SDS011;53400;50.364;14.874;2022-10-16T05:31:17;22.02;;;12.82;;
66546;SDS011;53400;50.364;14.874;2022-10-16T05:33:43;22.20;;;12.00;;
66546;SDS011;53400;50.364;14.874;2022-10-16T05:36:09;19.13;;;11.80;;
66546;SDS011;53400;50.364;14.874;2022-10-16T05:38:36;19.88;;;12.40;;
66546;SDS011;53400;50.364;14.874;2022-10-16T05:41:04;19.95;;;12.07;;
66546;SDS011;53400;50.364;14.874;2022-10-16T05:43:30;19.77;;;12.05;;
66546;SDS011;53400;50.364;14.874;2022-10-16T05:45:58;16.52;;;10.80;;
66546;SDS011;53400;50.364;14.874;2022-10-16T05:48:26;22.30;;;11.55;;
66546;SDS011;53400;50.364;14.874;2022-10-16T05:50:58;21.65;;;11.27;;
66546;SDS011;53400;50.364;14.874;2022-10-16T05:53:26;16.67;;;10.70;;
66546;SDS011;53400;50.364;14.874;2022-10-16T05:55:52;19.48;;;11.10;;
66546;SDS011;53400;50.364;14.874;2022-10-16T05:58:20;18.23;;;10.75;;
66546;SDS011;53400;50.364;14.874;2022-10-16T06:00:52;21.20;;;12.27;;
66546;SDS011;53400;50.364;14.874;2022-10-16T06:03:19;21.35;;;12.77;;
66546;SDS011;53400;50.364;14.874;2022-10-16T06:05:45;21.13;;;12.82;;
66546;SDS011;53400;50.364;14.874;2022-10-16T06:08:11;19.77;;;12.25;;
66546;SDS011;53400;50.364;14.874;2022-10-16T06:10:37;19.90;;;11.30;;
66546;SDS011;53400;50.364;14.874;2022-10-16T06:13:03;21.48;;;12.25;;
66546;SDS011;53400;50.364;14.874;2022-10-16T06:15:31;18.63;;;11.40;;
66546;SDS011;53400;50.364;14.874;2022-10-16T06:17:57;19.25;;;12.13;;
66546;SDS011;53400;50.364;14.874;2022-10-16T06:20:23;19.45;;;11.55;;
66546;SDS011;53400;50.364;14.874;2022-10-16T06:22:49;19.52;;;12.15;;
66546;SDS011;53400;50.364;14.874;2022-10-16T06:25:15;17.10;;;9.98;;
66546;SDS011;53400;50.364;14.874;2022-10-16T06:27:41;21.27;;;11.98;;
66546;SDS011;53400;50.364;14.874;2022-10-16T06:30:07;21.85;;;12.27;;
66546;SDS011;53400;50.364;14.874;2022-10-16T06:32:35;20.25;;;11.48;;
66546;SDS011;53400;50.364;14.874;2022-10-16T06:35:01;19.08;;;12.02;;
66546;SDS011;53400;50.364;14.874;2022-10-16T06:37:27;20.85;;;12.48;;
66546;SDS011;53400;50.364;14.874;2022-10-16T06:39:53;18.33;;;10.95;;
66546;SDS011;53400;50.364;14.874;2022-10-16T06:42:19;18.70;;;10.80;;
66546;SDS011;53400;50.364;14.874;2022-10-16T06:44:45;19.90;;;10.90;;
66546;SDS011;53400;50.364;14.874;2022-10-16T06:47:11;17.95;;;10.70;;
66546;SDS011;53400;50.364;14.874;2022-10-16T06:49:38;16.63;;;11.02;;
66546;SDS011;53400;50.364;14.874;2022-10-16T06:52:04;17.75;;;11.07;;
66546;SDS011;53400;50.364;14.874;2022-10-16T06:54:30;18.48;;;10.85;;
66546;SDS011;53400;50.364;14.874;2022-10-16T06:56:56;18.30;;;11.77;;
66546;SDS011;53400;50.364;14.874;2022-10-16T06:59:22;18.55;;;10.93;;
66546;SDS011;53400;50.364;14.874;2022-10-16T07:01:48;17.75;;;10.68;;
66546;SDS011;53400;50.364;14.874;2022-10-16T07:04:14;17.80;;;10.57;;
66546;SDS011;53400;50.364;14.874;2022-10-16T07:06:42;19.27;;;11.60;;
66546;SDS011;53400;50.364;14.874;2022-10-16T07:09:09;18.38;;;11.13;;
66546;SDS011;53400;50.364;14.874;2022-10-16T07:11:36;19.42;;;11.25;;
66546;SDS011;53400;50.364;14.874;2022-10-16T07:14:02;15.88;;;10.80;;
66546;SDS011;53400;50.364;14.874;2022-10-16T07:16:29;17.92;;;11.18;;
66546;SDS011;53400;50.364;14.874;2022-10-16T07:18:57;19.00;;;11.70;;
66546;SDS011;53400;50.364;14.874;2022-10-16T07:21:25;19.52;;;11.27;;
66546;SDS011;53400;50.364;14.874;2022-10-16T07:23:54;14.55;;;9.73;;
66546;SDS011;53400;50.364;14.874;2022-10-16T07:26:21;17.95;;;11.30;;
66546;SDS011;53400;50.364;14.874;2022-10-16T07:28:48;15.98;;;10.68;;
66546;SDS011;53400;50.364;14.874;2022-10-16T07:31:15;18.70;;;9.98;;
66546;SDS011;53400;50.364;14.874;2022-10-16T07:33:43;16.88;;;11.65;;
66546;SDS011;53400;50.364;14.874;2022-10-16T07:36:10;15.82;;;10.40;;
66546;SDS011;53400;50.364;14.874;2022-10-16T07:38:36;16.05;;;10.40;;
66546;SDS011;53400;50.364;14.874;2022-10-16T07:41:05;18.10;;;10.27;;
66546;SDS011;53400;50.364;14.874;2022-10-16T07:43:33;15.60;;;10.07;;
66546;SDS011;53400;50.364;14.874;2022-10-16T07:45:59;14.48;;;9.80;;
66546;SDS011;53400;50.364;14.874;2022-10-16T07:48:26;15.75;;;10.63;;
66546;SDS011;53400;50.364;14.874;2022-10-16T07:50:56;15.15;;;9.80;;
66546;SDS011;53400;50.364;14.874;2022-10-16T07:53:23;15.93;;;9.82;;
66546;SDS011;53400;50.364;14.874;2022-10-16T07:55:49;14.77;;;9.20;;
66546;SDS011;53400;50.364;14.874;2022-10-16T07:58:16;15.35;;;9.60;;
66546;SDS011;53400;50.364;14.874;2022-10-16T08:00:42;15.30;;;9.82;;
66546;SDS011;53400;50.364;14.874;2022-10-16T08:03:08;14.80;;;9.38;;
66546;SDS011;53400;50.364;14.874;2022-10-16T08:05:34;15.38;;;9.52;;
66546;SDS011;53400;50.364;14.874;2022-10-16T08:08:00;13.98;;;8.85;;
66546;SDS011;53400;50.364;14.874;2022-10-16T08:10:27;15.10;;;9.52;;
66546;SDS011;53400;50.364;14.874;2022-10-16T08:12:54;12.30;;;8.90;;
66546;SDS011;53400;50.364;14.874;2022-10-16T08:15:21;12.70;;;9.10;;
66546;SDS011;53400;50.364;14.874;2022-10-16T08:17:53;14.43;;;8.63;;
66546;SDS011;53400;50.364;14.874;2022-10-16T08:20:20;13.07;;;9.10;;
66546;SDS011;53400;50.364;14.874;2022-10-16T08:22:46;14.23;;;9.38;;
66546;SDS011;53400;50.364;14.874;2022-10-16T08:25:12;15.07;;;9.00;;
66546;SDS011;53400;50.364;14.874;2022-10-16T08:27:38;14.55;;;8.75;;
66546;SDS011;53400;50.364;14.874;2022-10-16T08:30:04;10.35;;;7.82;;
66546;SDS011;53400;50.364;14.874;2022-10-16T08:32:32;10.55;;;7.95;;
66546;SDS011;53400;50.364;14.874;2022-10-16T08:34:58;10.93;;;8.10;;
66546;SDS011;53400;50.364;14.874;2022-10-16T08:37:24;11.90;;;7.65;;
66546;SDS011;53400;50.364;14.874;2022-10-16T08:39:50;10.05;;;7.72;;
66546;SDS011;53400;50.364;14.874;2022-10-16T08:42:26;11.95;;;8.02;;
66546;SDS011;53400;50.364;14.874;2022-10-16T08:48:11;11.38;;;7.60;;
66546;SDS011;53400;50.364;14.874;2022-10-16T08:50:43;12.45;;;7.72;;
66546;SDS011;53400;50.364;14.874;2022-10-16T08:53:11;10.00;;;7.53;;
66546;SDS011;53400;50.364;14.874;2022-10-16T08:55:42;8.95;;;6.90;;
66546;SDS011;53400;50.364;14.874;2022-10-16T08:58:11;10.48;;;6.68;;
66546;SDS011;53400;50.364;14.874;2022-10-16T09:00:39;10.80;;;7.30;;
66546;SDS011;53400;50.364;14.874;2022-10-16T09:03:07;10.02;;;6.70;;
66546;SDS011;53400;50.364;14.874;2022-10-16T09:05:48;9.35;;;6.68;;
66546;SDS011;53400;50.364;14.874;2022-10-16T09:08:25;10.35;;;6.57;;
66546;SDS011;53400;50.364;14.874;2022-10-16T09:10:59;11.30;;;6.75;;
66546;SDS011;53400;50.364;14.874;2022-10-16T09:13:34;11.00;;;7.15;;
66546;SDS011;53400;50.364;14.874;2022-10-16T09:16:12;10.15;;;6.75;;
66546;SDS011;53400;50.364;14.874;2022-10-16T09:18:50;8.85;;;6.53;;
66546;SDS011;53400;50.364;14.874;2022-10-16T09:21:23;10.65;;;6.53;;
66546;SDS011;53400;50.364;14.874;2022-10-16T09:23:53;9.45;;;6.50;;
66546;SDS011;53400;50.364;14.874;2022-10-16T09:26:22;8.52;;;6.45;;
66546;SDS011;53400;50.364;14.874;2022-10-16T09:28:48;8.90;;;6.20;;
66546;SDS011;53400;50.364;14.874;2022-10-16T09:31:18;10.82;;;5.90;;
66546;SDS011;53400;50.364;14.874;2022-10-16T09:33:48;9.23;;;6.18;;
66546;SDS011;53400;50.364;14.874;2022-10-16T09:36:17;9.00;;;6.43;;
66546;SDS011;53400;50.364;14.874;2022-10-16T09:38:45;10.35;;;5.97;;
66546;SDS011;53400;50.364;14.874;2022-10-16T09:41:13;9.25;;;6.53;;
66546;SDS011;53400;50.364;14.874;2022-10-16T09:43:46;9.20;;;5.80;;
66546;SDS011;53400;50.364;14.874;2022-10-16T09:46:22;8.27;;;5.53;;
66546;SDS011;53400;50.364;14.874;2022-10-16T09:48:54;7.68;;;5.25;;
66546;SDS011;53400;50.364;14.874;2022-10-16T09:51:24;9.52;;;6.00;;
66546;SDS011;53400;50.364;14.874;2022-10-16T09:53:54;10.98;;;6.50;;
66546;SDS011;53400;50.364;14.874;2022-10-16T09:56:23;9.30;;;6.20;;
66546;SDS011;53400;50.364;14.874;2022-10-16T09:58:51;9.27;;;6.20;;
66546;SDS011;53400;50.364;14.874;2022-10-16T10:01:18;10.45;;;5.78;;
66546;SDS011;53400;50.364;14.874;2022-10-16T10:03:46;8.50;;;6.43;;
66546;SDS011;53400;50.364;14.874;2022-10-16T10:06:18;8.43;;;5.85;;
66546;SDS011;53400;50.364;14.874;2022-10-16T10:08:55;8.35;;;5.70;;
66546;SDS011;53400;50.364;14.874;2022-10-16T10:11:42;8.20;;;5.65;;
66546;SDS011;53400;50.364;14.874;2022-10-16T10:14:18;8.80;;;6.13;;
66546;SDS011;53400;50.364;14.874;2022-10-16T10:16:47;7.68;;;4.55;;
66546;SDS011;53400;50.364;14.874;2022-10-16T10:19:15;6.82;;;4.15;;
66546;SDS011;53400;50.364;14.874;2022-10-16T10:21:43;6.70;;;4.15;;
66546;SDS011;53400;50.364;14.874;2022-10-16T10:24:10;5.95;;;3.90;;
66546;SDS011;53400;50.364;14.874;2022-10-16T10:26:37;6.43;;;4.40;;
66546;SDS011;53400;50.364;14.874;2022-10-16T10:29:09;7.65;;;4.18;;
66546;SDS011;53400;50.364;14.874;2022-10-16T10:31:43;7.78;;;4.20;;
66546;SDS011;53400;50.364;14.874;2022-10-16T10:34:20;6.32;;;4.15;;
66546;SDS011;53400;50.364;14.874;2022-10-16T10:36:59;8.93;;;4.45;;
66546;SDS011;53400;50.364;14.874;2022-10-16T10:39:32;8.02;;;4.57;;
66546;SDS011;53400;50.364;14.874;2022-10-16T10:42:09;7.37;;;4.33;;
66546;SDS011;53400;50.364;14.874;2022-10-16T10:44:49;8.07;;;4.20;;
66546;SDS011;53400;50.364;14.874;2022-10-16T10:47:35;5.80;;;3.40;;
66546;SDS011;53400;50.364;14.874;2022-10-16T10:50:09;6.35;;;3.45;;
66546;SDS011;53400;50.364;14.874;2022-10-16T10:52:46;6.25;;;3.47;;
66546;SDS011;53400;50.364;14.874;2022-10-16T10:55:25;6.60;;;3.47;;
66546;SDS011;53400;50.364;14.874;2022-10-16T10:58:19;7.00;;;3.28;;
66546;SDS011;53400;50.364;14.874;2022-10-16T11:01:12;7.25;;;3.42;;
66546;SDS011;53400;50.364;14.874;2022-10-16T11:03:47;6.65;;;3.47;;
66546;SDS011;53400;50.364;14.874;2022-10-16T11:06:26;7.32;;;3.50;;
66546;SDS011;53400;50.364;14.874;2022-10-16T11:08:57;6.18;;;3.50;;
66546;SDS011;53400;50.364;14.874;2022-10-16T11:11:30;5.65;;;3.40;;
66546;SDS011;53400;50.364;14.874;2022-10-16T11:14:03;5.68;;;2.90;;
66546;SDS011;53400;50.364;14.874;2022-10-16T11:16:39;4.82;;;2.80;;
66546;SDS011;53400;50.364;14.874;2022-10-16T11:19:10;6.18;;;2.70;;
66546;SDS011;53400;50.364;14.874;2022-10-16T11:21:45;4.95;;;2.90;;
66546;SDS011;53400;50.364;14.874;2022-10-16T11:24:19;6.15;;;2.70;;
66546;SDS011;53400;50.364;14.874;2022-10-16T11:26:52;5.90;;;3.03;;
66546;SDS011;53400;50.364;14.874;2022-10-16T11:29:22;5.55;;;2.85;;
66546;SDS011;53400;50.364;14.874;2022-10-16T11:31:52;9.13;;;2.70;;
66546;SDS011;53400;50.364;14.874;2022-10-16T11:34:22;6.75;;;2.75;;
66546;SDS011;53400;50.364;14.874;2022-10-16T11:36:56;6.68;;;2.70;;
66546;SDS011;53400;50.364;14.874;2022-10-16T11:39:27;4.78;;;2.65;;
66546;SDS011;53400;50.364;14.874;2022-10-16T11:41:55;6.22;;;2.80;;
66546;SDS011;53400;50.364;14.874;2022-10-16T11:44:37;4.60;;;2.70;;
66546;SDS011;53400;50.364;14.874;2022-10-16T11:47:23;6.03;;;2.83;;
66546;SDS011;53400;50.364;14.874;2022-10-16T11:49:53;5.17;;;2.10;;
66546;SDS011;53400;50.364;14.874;2022-10-16T11:52:25;4.13;;;2.28;;
66546;SDS011;53400;50.364;14.874;2022-10-16T11:54:57;5.25;;;2.40;;
66546;SDS011;53400;50.364;14.874;2022-10-16T11:57:28;6.90;;;2.25;;
66546;SDS011;53400;50.364;14.874;2022-10-16T11:59:57;6.85;;;1.98;;
66546;SDS011;53400;50.364;14.874;2022-10-16T12:02:32;5.05;;;2.03;;
66546;SDS011;53400;50.364;14.874;2022-10-16T12:05:13;5.77;;;1.67;;
66546;SDS011;53400;50.364;14.874;2022-10-16T12:07:48;4.57;;;1.90;;
66546;SDS011;53400;50.364;14.874;2022-10-16T12:10:24;4.65;;;2.20;;
66546;SDS011;53400;50.364;14.874;2022-10-16T12:12:52;3.95;;;2.03;;
66546;SDS011;53400;50.364;14.874;2022-10-16T12:15:19;3.40;;;1.70;;
66546;SDS011;53400;50.364;14.874;2022-10-16T12:17:48;4.03;;;1.80;;
66546;SDS011;53400;50.364;14.874;2022-10-16T12:20:22;3.90;;;2.00;;
66546;SDS011;53400;50.364;14.874;2022-10-16T12:22:52;5.05;;;2.00;;
66546;SDS011;53400;50.364;14.874;2022-10-16T12:25:24;4.85;;;1.95;;
66546;SDS011;53400;50.364;14.874;2022-10-16T12:27:54;4.97;;;1.88;;
66546;SDS011;53400;50.364;14.874;2022-10-16T12:30:25;3.50;;;1.80;;
66546;SDS011;53400;50.364;14.874;2022-10-16T12:32:53;4.38;;;2.10;;
66546;SDS011;53400;50.364;14.874;2022-10-16T12:35:21;4.78;;;1.90;;
66546;SDS011;53400;50.364;14.874;2022-10-16T12:37:49;3.47;;;1.80;;
66546;SDS011;53400;50.364;14.874;2022-10-16T12:40:24;3.78;;;1.88;;
66546;SDS011;53400;50.364;14.874;2022-10-16T12:42:55;4.50;;;2.03;;
66546;SDS011;53400;50.364;14.874;2022-10-16T12:45:26;3.80;;;1.90;;
66546;SDS011;53400;50.364;14.874;2022-10-16T12:47:54;4.40;;;1.80;;
66546;SDS011;53400;50.364;14.874;2022-10-16T12:50:29;7.60;;;1.90;;
66546;SDS011;53400;50.364;14.874;2022-10-16T12:52:57;3.83;;;1.80;;
66546;SDS011;53400;50.364;14.874;2022-10-16T12:55:23;3.58;;;1.77;;
66546;SDS011;53400;50.364;14.874;2022-10-16T12:57:57;3.33;;;1.65;;
66546;SDS011;53400;50.364;14.874;2022-10-16T13:00:33;4.37;;;1.77;;
66546;SDS011;53400;50.364;14.874;2022-10-16T13:06:11;6.25;;;1.85;;
66546;SDS011;53400;50.364;14.874;2022-10-16T13:08:50;3.40;;;1.52;;
66546;SDS011;53400;50.364;14.874;2022-10-16T13:11:29;4.28;;;1.77;;
66546;SDS011;53400;50.364;14.874;2022-10-16T13:14:19;3.60;;;1.80;;
66546;SDS011;53400;50.364;14.874;2022-10-16T13:17:00;3.85;;;1.55;;
66546;SDS011;53400;50.364;14.874;2022-10-16T13:19:35;3.30;;;1.70;;
66546;SDS011;53400;50.364;14.874;2022-10-16T13:22:12;3.28;;;1.60;;
66546;SDS011;53400;50.364;14.874;2022-10-16T13:24:50;4.00;;;1.52;;
66546;SDS011;53400;50.364;14.874;2022-10-16T13:27:28;3.45;;;1.70;;
66546;SDS011;53400;50.364;14.874;2022-10-16T13:30:08;3.88;;;1.88;;
66546;SDS011;53400;50.364;14.874;2022-10-16T13:32:38;5.40;;;1.83;;
66546;SDS011;53400;50.364;14.874;2022-10-16T13:35:15;4.28;;;1.52;;
66546;SDS011;53400;50.364;14.874;2022-10-16T13:37:44;5.85;;;2.13;;
66546;SDS011;53400;50.364;14.874;2022-10-16T13:40:13;4.75;;;2.05;;
66546;SDS011;53400;50.364;14.874;2022-10-16T13:42:45;4.15;;;1.98;;
66546;SDS011;53400;50.364;14.874;2022-10-16T13:45:18;2.42;;;1.33;;
66546;SDS011;53400;50.364;14.874;2022-10-16T13:47:44;3.10;;;1.50;;
66546;SDS011;53400;50.364;14.874;2022-10-16T13:50:11;3.75;;;1.50;;
66546;SDS011;53400;50.364;14.874;2022-10-16T13:52:38;3.80;;;1.60;;
66546;SDS011;53400;50.364;14.874;2022-10-16T13:55:04;4.05;;;1.50;;
66546;SDS011;53400;50.364;14.874;2022-10-16T13:57:36;4.63;;;1.60;;
66546;SDS011;53400;50.364;14.874;2022-10-16T14:00:03;4.05;;;1.58;;
66546;SDS011;53400;50.364;14.874;2022-10-16T14:02:43;4.00;;;1.40;;
66546;SDS011;53400;50.364;14.874;2022-10-16T14:05:10;4.57;;;1.40;;
66546;SDS011;53400;50.364;14.874;2022-10-16T14:07:36;5.25;;;1.65;;
66546;SDS011;53400;50.364;14.874;2022-10-16T14:10:04;3.78;;;1.85;;
66546;SDS011;53400;50.364;14.874;2022-10-16T14:12:32;3.80;;;1.55;;
66546;SDS011;53400;50.364;14.874;2022-10-16T14:14:59;3.88;;;1.80;;
66546;SDS011;53400;50.364;14.874;2022-10-16T14:17:26;3.92;;;1.90;;
66546;SDS011;53400;50.364;14.874;2022-10-16T14:19:57;4.43;;;1.88;;
66546;SDS011;53400;50.364;14.874;2022-10-16T14:22:28;4.15;;;2.00;;
66546;SDS011;53400;50.364;14.874;2022-10-16T14:24:56;4.85;;;2.00;;
66546;SDS011;53400;50.364;14.874;2022-10-16T14:27:24;5.00;;;2.17;;
66546;SDS011;53400;50.364;14.874;2022-10-16T14:30:03;5.25;;;2.25;;
66546;SDS011;53400;50.364;14.874;2022-10-16T14:32:39;5.60;;;2.30;;
66546;SDS011;53400;50.364;14.874;2022-10-16T14:35:20;4.38;;;2.00;;
66546;SDS011;53400;50.364;14.874;2022-10-16T14:37:50;4.47;;;1.77;;
66546;SDS011;53400;50.364;14.874;2022-10-16T14:40:17;4.85;;;1.85;;